createdAt,value
2022-09-12T00:00:39.177Z,1.40
2022-09-12T00:03:06.227Z,0.95
2022-09-12T00:05:33.463Z,1.17
2022-09-12T00:08:01.416Z,1.08
2022-09-12T00:10:28.449Z,1.33
2022-09-12T00:12:55.474Z,1.33
2022-09-12T00:15:22.532Z,1.33
2022-09-12T00:17:49.732Z,1.70
2022-09-12T00:20:17.272Z,1.27
2022-09-12T00:22:46.340Z,1.13
2022-09-12T00:25:13.411Z,1.23
2022-09-12T00:27:40.432Z,1.30
2022-09-12T00:30:07.680Z,1.27
2022-09-12T00:32:34.813Z,1.17
2022-09-12T00:35:02.767Z,1.20
2022-09-12T00:37:32.982Z,1.98
2022-09-12T00:40:00.053Z,1.50
2022-09-12T00:42:33.351Z,1.35
2022-09-12T00:45:00.362Z,1.00
2022-09-12T00:47:31.804Z,1.10
2022-09-12T00:50:05.468Z,1.35
2022-09-12T00:52:54.523Z,1.73
2022-09-12T00:55:23.187Z,1.20
2022-09-12T00:57:52.213Z,1.30
2022-09-12T01:00:21.257Z,1.40
2022-09-12T01:02:51.305Z,1.60
2022-09-12T01:05:21.316Z,1.35
2022-09-12T01:07:50.116Z,0.90
2022-09-12T01:10:17.213Z,1.52
2022-09-12T01:12:44.620Z,1.27
2022-09-12T01:15:14.776Z,1.60
2022-09-12T01:18:08.114Z,1.30
2022-09-12T01:20:47.536Z,1.23
2022-09-12T01:23:23.707Z,1.35
2022-09-12T01:26:01.272Z,1.67
2022-09-12T01:28:31.498Z,1.17
2022-09-12T01:31:07.560Z,1.48
2022-09-12T01:33:56.535Z,1.92
2022-09-12T01:36:30.468Z,1.10
2022-09-12T01:39:00.829Z,1.30
2022-09-12T01:41:31.122Z,1.30
2022-09-12T01:44:01.689Z,1.33
2022-09-12T01:46:37.172Z,1.08
2022-09-12T01:49:16.617Z,1.80
2022-09-12T01:51:58.228Z,0.80
2022-09-12T01:54:33.001Z,1.15
2022-09-12T01:57:04.865Z,1.35
2022-09-12T01:59:39.502Z,1.08
2022-09-12T02:02:09.613Z,0.75
2022-09-12T02:04:39.987Z,0.93
2022-09-12T02:07:17.144Z,1.33
2022-09-12T02:09:50.095Z,1.38
2022-09-12T02:12:18.466Z,1.33
2022-09-12T02:14:51.218Z,0.98
2022-09-12T02:17:21.373Z,1.20
2022-09-12T02:19:52.918Z,1.17
2022-09-12T02:22:21.583Z,1.00
2022-09-12T02:24:51.290Z,1.27
2022-09-12T02:27:24.525Z,1.08
2022-09-12T02:29:51.715Z,1.20
2022-09-12T02:32:39.105Z,1.40
2022-09-12T02:35:07.341Z,1.40
2022-09-12T02:37:46.433Z,1.27
2022-09-12T02:40:14.051Z,1.20
2022-09-12T02:42:44.336Z,1.33
2022-09-12T02:45:12.465Z,1.23
2022-09-12T02:47:42.281Z,1.00
2022-09-12T02:50:09.646Z,1.10
2022-09-12T02:52:36.774Z,1.48
2022-09-12T02:55:05.779Z,1.30
2022-09-12T02:57:36.141Z,1.23
2022-09-12T03:00:03.759Z,1.27
2022-09-12T03:02:34.134Z,0.80
2022-09-12T03:05:04.180Z,1.30
2022-09-12T03:07:53.215Z,1.05
2022-09-12T03:10:39.259Z,1.20
2022-09-12T03:13:21.944Z,1.13
2022-09-12T03:15:52.098Z,0.98
2022-09-12T03:18:19.714Z,0.80
2022-09-12T03:21:08.303Z,1.20
2022-09-12T03:23:37.446Z,1.05
2022-09-12T03:26:10.463Z,0.82
2022-09-12T03:28:43.312Z,1.10
2022-09-12T03:31:14.940Z,1.15
2022-09-12T03:33:45.474Z,1.33
2022-09-12T03:36:19.400Z,1.10
2022-09-12T03:38:46.516Z,1.25
2022-09-12T03:41:13.650Z,1.27
2022-09-12T03:43:40.686Z,1.23
2022-09-12T03:46:08.068Z,1.20
2022-09-12T03:48:35.207Z,1.05
2022-09-12T03:51:03.268Z,1.30
2022-09-12T03:53:30.696Z,1.17
2022-09-12T03:55:58.345Z,1.20
2022-09-12T03:58:25.888Z,0.90
2022-09-12T04:00:53.001Z,0.90
2022-09-12T04:03:20.189Z,1.40
2022-09-12T04:05:47.573Z,1.43
2022-09-12T04:08:17.737Z,1.10
2022-09-12T04:10:44.860Z,1.00
2022-09-12T04:13:11.941Z,1.00
2022-09-12T04:15:39.195Z,1.00
2022-09-12T04:18:09.314Z,0.80
2022-09-12T04:20:37.064Z,0.68
2022-09-12T04:23:04.192Z,1.10
2022-09-12T04:25:31.408Z,1.13
2022-09-12T04:28:01.586Z,0.88
2022-09-12T04:30:28.683Z,1.50
2022-09-12T04:32:55.745Z,0.90
2022-09-12T04:35:23.086Z,1.25
2022-09-12T04:37:50.119Z,0.95
2022-09-12T04:40:20.333Z,1.35
2022-09-12T04:42:47.393Z,0.97
2022-09-12T04:45:16.725Z,0.95
2022-09-12T04:47:43.801Z,0.77
2022-09-12T04:50:10.885Z,0.80
2022-09-12T04:52:37.955Z,0.98
2022-09-12T04:55:05.179Z,0.93
2022-09-12T04:57:32.243Z,1.00
2022-09-12T05:00:02.817Z,1.02
2022-09-12T05:02:36.769Z,0.80
2022-09-12T05:05:03.886Z,0.95
2022-09-12T05:07:30.962Z,1.42
2022-09-12T05:09:58.333Z,0.90
2022-09-12T05:12:28.162Z,0.90
2022-09-12T05:14:55.824Z,0.90
2022-09-12T05:17:22.966Z,1.20
2022-09-12T05:19:52.856Z,0.85
2022-09-12T05:22:20.109Z,1.00
2022-09-12T05:24:50.593Z,1.10
2022-09-12T05:27:18.078Z,0.98
2022-09-12T05:29:45.226Z,0.90
2022-09-12T05:32:12.500Z,1.10
2022-09-12T06:16:47.574Z,0.20
2022-09-12T06:19:16.144Z,0.50
2022-09-12T06:21:43.675Z,1.05
2022-09-12T06:24:10.806Z,1.15
2022-09-12T06:26:38.151Z,1.55
2022-09-12T06:29:05.553Z,1.27
2022-09-12T06:31:34.021Z,1.88
2022-09-12T06:34:04.788Z,1.58
2022-09-12T06:36:35.087Z,1.52
2022-09-12T06:39:03.735Z,1.65
2022-09-12T06:41:34.194Z,1.77
2022-09-12T06:44:01.506Z,1.77
2022-09-12T06:46:28.642Z,1.63
2022-09-12T06:48:59.660Z,1.95
2022-09-12T06:51:27.590Z,2.15
2022-09-12T06:53:57.774Z,1.80
2022-09-12T06:56:27.301Z,2.20
2022-09-12T06:58:56.722Z,1.50
2022-09-12T07:01:28.444Z,1.80
2022-09-12T07:03:56.556Z,1.80
2022-09-12T07:06:29.637Z,1.80
2022-09-12T07:08:58.486Z,2.07
2022-09-12T07:11:26.980Z,1.33
2022-09-12T07:13:57.195Z,1.45
2022-09-12T07:16:24.356Z,1.45
2022-09-12T07:18:52.409Z,1.17
2022-09-12T07:21:19.743Z,1.40
2022-09-12T07:23:47.463Z,1.53
2022-09-12T07:26:15.479Z,1.55
2022-09-12T07:28:42.961Z,1.87
2022-09-12T07:31:11.513Z,1.92
2022-09-12T07:33:39.005Z,1.77
2022-09-12T07:36:11.578Z,1.23
2022-09-12T07:38:39.238Z,1.20
2022-09-12T07:41:12.213Z,1.60
2022-09-12T07:43:39.311Z,1.80
2022-09-12T07:46:09.319Z,1.85
2022-09-12T07:48:36.608Z,1.60
2022-09-12T07:51:05.458Z,1.65
2022-09-12T07:53:33.997Z,1.40
2022-09-12T07:56:02.889Z,1.70
2022-09-12T07:58:35.449Z,1.40
2022-09-12T08:01:07.258Z,1.90
2022-09-12T08:03:34.929Z,1.40
2022-09-12T08:06:05.847Z,1.70
2022-09-12T08:08:36.014Z,1.70
2022-09-12T08:11:05.926Z,1.83
2022-09-12T08:13:33.665Z,1.58
2022-09-12T08:16:02.112Z,1.70
2022-09-12T08:18:30.395Z,1.80
2022-09-12T08:21:03.502Z,1.50
2022-09-12T08:23:30.987Z,1.40
2022-09-12T08:25:59.626Z,1.42
2022-09-12T08:28:31.320Z,1.30
2022-09-12T08:31:02.161Z,1.63
2022-09-12T08:33:33.554Z,1.50
2022-09-12T08:36:07.308Z,1.42
2022-09-12T08:38:35.515Z,1.75
2022-09-12T08:41:10.292Z,1.48
2022-09-12T08:44:07.117Z,1.48
2022-09-12T08:46:39.340Z,1.65
2022-09-12T08:49:09.682Z,1.90
2022-09-12T08:51:36.875Z,1.33
2022-09-12T08:54:05.287Z,1.38
2022-09-12T08:56:35.531Z,1.40
2022-09-12T08:59:05.626Z,1.48
2022-09-12T09:01:32.688Z,1.67
2022-09-12T09:04:03.047Z,1.50
2022-09-12T09:06:47.615Z,1.20
2022-09-12T09:09:42.513Z,2.13
2022-09-12T09:12:30.609Z,1.30
2022-09-12T09:15:11.963Z,1.63
2022-09-12T09:17:43.107Z,1.20
2022-09-12T09:20:22.760Z,1.30
2022-09-12T09:22:53.581Z,1.50
2022-09-12T09:25:36.721Z,1.20
2022-09-12T09:28:37.576Z,1.50
2022-09-12T09:31:04.390Z,1.67
2022-09-12T09:33:35.110Z,1.23
2022-09-12T09:36:39.483Z,1.23
2022-09-12T09:39:12.130Z,1.40
2022-09-12T09:41:58.667Z,1.20
2022-09-12T09:44:30.055Z,1.30
2022-09-12T09:46:59.633Z,1.15
2022-09-12T09:49:30.185Z,1.25
2022-09-12T09:51:58.861Z,1.33
2022-09-12T09:54:34.066Z,1.13
2022-09-12T09:57:01.118Z,1.35
2022-09-12T09:59:33.764Z,1.10
2022-09-12T10:02:24.049Z,1.00
2022-09-12T10:04:56.427Z,1.20
2022-09-12T10:07:24.701Z,1.10
2022-09-12T10:10:14.449Z,1.20
2022-09-12T10:12:41.968Z,1.40
2022-09-12T10:15:23.175Z,1.10
2022-09-12T10:17:51.135Z,1.20
2022-09-12T10:20:40.317Z,1.00
2022-09-12T10:23:23.650Z,1.00
2022-09-12T10:25:56.348Z,1.02
2022-09-12T10:28:31.733Z,1.00
2022-09-12T10:31:02.815Z,1.10
2022-09-12T10:33:30.258Z,1.30
2022-09-12T10:36:03.524Z,0.95
2022-09-12T10:38:34.365Z,0.97
2022-09-12T10:41:07.465Z,1.20
2022-09-12T10:43:34.049Z,0.88
2022-09-12T10:46:29.271Z,1.00
2022-09-12T10:49:29.388Z,1.10
2022-09-12T10:51:59.494Z,0.93
2022-09-12T10:54:28.495Z,1.10
2022-09-12T10:56:57.842Z,0.90
2022-09-12T11:00:04.533Z,1.02
2022-09-12T11:02:45.241Z,0.95
2022-09-12T11:05:23.028Z,1.05
2022-09-12T11:08:01.118Z,0.90
2022-09-12T11:10:44.324Z,1.00
2022-09-12T11:13:29.528Z,0.88
2022-09-12T11:16:09.765Z,1.10
2022-09-12T11:18:48.529Z,1.05
2022-09-12T11:21:18.282Z,1.02
2022-09-12T11:24:24.744Z,1.42
2022-09-12T11:27:15.577Z,1.20
2022-09-12T11:29:59.817Z,0.80
2022-09-12T11:32:50.214Z,1.08
2022-09-12T11:35:31.605Z,1.20
2022-09-12T11:38:25.873Z,1.05
2022-09-12T11:41:02.052Z,1.08
2022-09-12T11:43:43.809Z,1.13
2022-09-12T11:46:40.461Z,0.93
2022-09-12T11:49:12.295Z,0.90
2022-09-12T11:51:57.861Z,1.10
2022-09-12T11:54:37.097Z,0.77
2022-09-12T11:57:30.998Z,0.80
2022-09-12T12:00:17.591Z,1.00
2022-09-12T12:02:59.609Z,1.07
2022-09-12T12:05:38.356Z,1.10
2022-09-12T12:08:06.582Z,0.90
2022-09-12T12:11:08.610Z,1.00
2022-09-12T12:13:56.095Z,0.88
2022-09-12T12:16:34.717Z,1.10
2022-09-12T12:19:18.511Z,0.85
2022-09-12T12:21:51.890Z,0.90
2022-09-12T12:24:28.826Z,1.00
2022-09-12T12:27:05.752Z,0.90
2022-09-12T12:29:35.292Z,0.80
2022-09-12T12:32:04.738Z,0.80
2022-09-12T12:34:33.610Z,0.77
2022-09-12T12:37:20.337Z,0.80
2022-09-12T12:39:48.198Z,0.73
2022-09-12T12:42:35.992Z,0.80
2022-09-12T12:45:04.295Z,0.70
2022-09-12T12:47:44.381Z,0.82
2022-09-12T12:50:11.064Z,0.90
2022-09-12T12:52:55.393Z,0.90
2022-09-12T12:55:38.993Z,0.90
2022-09-12T12:58:07.526Z,0.90
2022-09-12T13:00:35.985Z,0.90
2022-09-12T13:03:19.725Z,0.82
2022-09-12T13:06:00.778Z,0.88
2022-09-12T13:08:33.620Z,1.05
2022-09-12T13:11:10.410Z,0.70
2022-09-12T13:13:55.000Z,0.90
2022-09-12T13:16:51.865Z,0.65
2022-09-12T13:19:27.159Z,0.80
2022-09-12T13:22:08.657Z,0.80
2022-09-12T13:24:44.645Z,0.80
2022-09-12T13:27:18.820Z,0.70
2022-09-12T13:29:45.458Z,0.80
2022-09-12T13:32:12.344Z,0.65
2022-09-12T13:34:57.499Z,0.80
2022-09-12T13:37:49.732Z,0.68
2022-09-12T13:40:33.822Z,0.60
2022-09-12T13:43:16.363Z,0.68
2022-09-12T13:45:46.654Z,0.73
2022-09-12T13:48:25.249Z,0.70
2022-09-12T13:50:58.656Z,0.70
2022-09-12T13:53:29.881Z,0.70
2022-09-12T13:56:00.081Z,0.70
2022-09-12T13:58:29.586Z,0.65
2022-09-12T14:01:10.432Z,0.82
2022-09-12T14:04:18.755Z,0.68
2022-09-12T14:06:50.916Z,0.80
2022-09-12T14:09:25.463Z,0.80
2022-09-12T14:11:53.706Z,0.70
2022-09-12T14:14:32.720Z,0.70
2022-09-12T14:17:00.155Z,0.77
2022-09-12T14:19:29.050Z,0.70
2022-09-12T14:21:57.367Z,0.70
2022-09-12T14:24:24.403Z,0.80
2022-09-12T14:26:54.148Z,0.57
2022-09-12T14:29:22.426Z,0.70
2022-09-12T14:32:01.505Z,0.90
2022-09-12T14:34:28.345Z,0.70
2022-09-12T14:36:56.839Z,0.70
2022-09-12T14:39:26.682Z,0.73
2022-09-12T14:42:07.706Z,0.60
2022-09-12T14:44:36.183Z,0.70
2022-09-12T14:47:18.448Z,0.60
2022-09-12T14:49:45.312Z,0.70
2022-09-12T14:52:33.644Z,0.70
2022-09-12T14:55:20.834Z,0.43
2022-09-12T14:57:47.876Z,0.82
2022-09-12T15:00:20.901Z,0.70
2022-09-12T15:02:49.444Z,0.80
2022-09-12T15:05:20.207Z,0.63
2022-09-12T15:08:05.034Z,0.77
2022-09-12T15:10:34.292Z,0.70
2022-09-12T15:13:22.358Z,0.63
2022-09-12T15:15:52.081Z,0.68
2022-09-12T15:18:19.673Z,0.60
2022-09-12T15:20:48.744Z,0.88
2022-09-12T15:23:36.061Z,0.90
2022-09-12T15:26:03.700Z,0.80
2022-09-12T15:28:31.610Z,0.70
2022-09-12T15:31:03.159Z,0.77
2022-09-12T15:33:29.803Z,0.70
2022-09-12T15:35:56.665Z,0.60
2022-09-12T15:38:26.603Z,0.70
2022-09-12T15:40:54.554Z,0.82
2022-09-12T15:43:23.090Z,0.75
2022-09-12T15:45:51.605Z,0.50
2022-09-12T15:48:18.949Z,0.70
2022-09-12T15:50:45.836Z,0.80
2022-09-12T15:53:16.778Z,0.77
2022-09-12T15:55:44.115Z,0.60
2022-09-12T15:58:10.823Z,0.60
2022-09-12T16:00:37.864Z,0.68
2022-09-12T16:03:05.191Z,0.77
2022-09-12T16:05:32.268Z,0.65
2022-09-12T16:07:58.897Z,0.63
2022-09-12T16:10:29.609Z,0.73
2022-09-12T16:12:56.728Z,0.65
2022-09-12T16:15:24.943Z,0.60
2022-09-12T16:17:53.006Z,0.70
2022-09-12T16:20:20.831Z,0.70
2022-09-12T16:22:47.935Z,0.70
2022-09-12T16:25:14.647Z,0.70
2022-09-12T16:27:41.643Z,0.60
2022-09-12T16:30:09.808Z,0.57
2022-09-12T16:32:36.527Z,0.60
2022-09-12T16:35:03.417Z,0.47
2022-09-12T16:37:32.032Z,0.50
2022-09-12T16:39:58.768Z,0.60
2022-09-12T16:42:25.482Z,0.60
2022-09-12T16:44:52.557Z,0.52
2022-09-12T16:47:19.770Z,0.60
2022-09-12T16:49:46.386Z,0.60
2022-09-12T16:52:16.414Z,0.70
2022-09-12T16:54:44.432Z,0.80
2022-09-12T16:57:11.643Z,0.60
2022-09-12T16:59:38.775Z,0.82
2022-09-12T17:02:06.070Z,0.63
2022-09-12T17:04:32.897Z,0.60
2022-09-12T17:06:59.537Z,0.63
2022-09-12T17:09:28.064Z,0.80
2022-09-12T17:11:57.052Z,0.68
2022-09-12T17:14:24.489Z,0.60
2022-09-12T17:16:52.299Z,0.50
2022-09-12T17:19:29.593Z,0.60
2022-09-12T17:21:57.580Z,0.80
2022-09-12T17:24:25.268Z,0.75
2022-09-12T17:26:54.965Z,0.70
2022-09-12T17:29:21.687Z,0.80
2022-09-12T17:31:48.789Z,0.83
2022-09-12T17:34:16.271Z,0.70
2022-09-12T17:36:44.694Z,0.50
2022-09-12T17:39:12.947Z,0.70
2022-09-12T17:41:41.845Z,0.45
2022-09-12T17:44:11.161Z,1.10
2022-09-12T17:46:41.205Z,0.75
2022-09-12T17:49:13.786Z,0.73
2022-09-12T17:51:41.079Z,0.70
2022-09-12T17:54:11.616Z,0.77
2022-09-12T17:56:39.360Z,0.90
2022-09-12T17:59:07.874Z,0.53
2022-09-12T18:01:54.243Z,0.93
2022-09-12T18:04:24.061Z,0.55
2022-09-12T18:06:51.094Z,0.70
2022-09-12T18:09:19.468Z,0.60
2022-09-12T18:11:48.769Z,0.90
2022-09-12T18:14:18.973Z,0.90
2022-09-12T18:16:46.458Z,0.93
2022-09-12T18:19:13.540Z,1.00
2022-09-12T18:21:41.213Z,1.10
2022-09-12T18:24:08.391Z,0.90
2022-09-12T18:26:35.784Z,0.98
2022-09-12T18:29:02.917Z,0.90
2022-09-12T18:31:30.995Z,0.90
2022-09-12T18:33:59.770Z,0.60
2022-09-12T18:36:27.638Z,0.80
2022-09-12T18:38:54.939Z,0.70
2022-09-12T18:41:24.769Z,0.80
2022-09-12T18:43:56.740Z,1.02
2022-09-12T18:46:24.226Z,0.90
2022-09-12T18:48:52.188Z,0.70
2022-09-12T18:51:20.467Z,1.15
2022-09-12T18:53:55.023Z,0.75
2022-09-12T18:56:23.105Z,0.70
2022-09-12T18:58:52.210Z,0.77
2022-09-12T19:01:21.121Z,0.65
2022-09-12T19:03:48.352Z,0.70
2022-09-12T19:06:20.452Z,0.77
2022-09-12T19:08:48.740Z,0.70
2022-09-12T19:11:16.021Z,0.70
2022-09-12T19:13:44.378Z,0.70
2022-09-12T19:16:13.781Z,0.97
2022-09-12T19:18:41.447Z,0.77
2022-09-12T19:21:09.721Z,0.80
2022-09-12T19:23:37.318Z,0.98
2022-09-12T19:26:06.115Z,0.90
2022-09-12T19:28:33.185Z,0.80
2022-09-12T19:31:00.453Z,0.98
2022-09-12T19:33:27.159Z,1.10
2022-09-12T19:35:53.764Z,0.80
2022-09-12T19:38:20.564Z,0.85
2022-09-12T19:40:59.178Z,1.13
2022-09-12T19:43:27.007Z,0.80
2022-09-12T19:45:53.747Z,0.90
2022-09-12T19:48:21.345Z,0.90
2022-09-12T19:50:49.208Z,0.80
2022-09-12T19:53:16.715Z,0.80
2022-09-12T19:55:47.431Z,0.90
2022-09-12T19:58:14.148Z,1.33
2022-09-12T20:00:40.798Z,1.35
2022-09-12T20:03:07.388Z,1.20
2022-09-12T20:05:34.426Z,0.90
2022-09-12T20:08:01.460Z,1.10
2022-09-12T20:10:28.265Z,1.00
2022-09-12T20:12:54.898Z,0.88
2022-09-12T20:15:21.996Z,1.08
2022-09-12T20:17:52.553Z,0.95
2022-09-12T20:20:19.517Z,0.93
2022-09-12T20:22:50.377Z,1.00
2022-09-12T20:25:17.543Z,1.03
2022-09-12T20:27:44.596Z,1.00
2022-09-12T20:30:12.210Z,0.90
2022-09-12T20:32:39.249Z,0.90
2022-09-12T20:35:06.579Z,1.15
2022-09-12T20:37:33.653Z,1.00
2022-09-12T20:40:00.769Z,0.90
2022-09-12T20:42:29.171Z,0.70
2022-09-12T20:44:56.235Z,0.90
2022-09-12T20:47:23.301Z,1.20
2022-09-12T20:49:53.655Z,1.00
2022-09-12T20:52:23.802Z,0.70
2022-09-12T20:54:50.967Z,1.00
2022-09-12T20:57:18.037Z,1.00
2022-09-12T20:59:45.189Z,1.10
2022-09-12T21:02:16.075Z,0.80
2022-09-12T21:04:43.379Z,1.00
2022-09-12T21:07:10.571Z,1.13
2022-09-12T21:09:37.675Z,0.93
2022-09-12T21:12:07.583Z,1.00
2022-09-12T21:14:42.760Z,0.93
2022-09-12T21:17:09.883Z,0.88
2022-09-12T21:19:36.937Z,1.05
2022-09-12T21:22:04.040Z,1.00
2022-09-12T21:24:31.083Z,0.80
2022-09-12T21:27:03.452Z,0.90
2022-09-12T21:29:31.396Z,1.00
2022-09-12T21:31:58.434Z,1.10
2022-09-12T21:34:25.453Z,1.10
2022-09-12T21:36:54.862Z,1.17
2022-09-12T21:39:21.689Z,1.23
2022-09-12T21:41:48.298Z,1.38
2022-09-12T21:44:14.952Z,1.20
2022-09-12T21:46:41.680Z,1.00
2022-09-12T21:49:11.133Z,1.27
2022-09-12T21:51:37.965Z,1.10
2022-09-12T21:54:04.705Z,1.03
2022-09-12T21:56:31.323Z,1.27
2022-09-12T21:58:58.639Z,1.10
2022-09-12T22:01:25.297Z,0.93
2022-09-12T22:03:52.195Z,1.05
2022-09-12T22:06:22.395Z,1.00
2022-09-12T22:08:49.361Z,1.00
2022-09-12T22:11:21.003Z,1.10
2022-09-12T22:13:47.765Z,0.80
2022-09-12T22:16:14.902Z,1.10
2022-09-12T22:18:41.677Z,1.13
2022-09-12T22:21:12.723Z,0.98
2022-09-12T22:23:57.993Z,1.30
2022-09-12T22:26:28.142Z,1.40
2022-09-12T22:28:55.075Z,1.10
2022-09-12T22:31:22.203Z,0.60
2022-09-12T22:33:48.932Z,0.80
2022-09-12T22:36:15.998Z,0.88
2022-09-12T22:38:42.701Z,1.00
2022-09-12T22:41:11.813Z,1.13
2022-09-12T22:43:38.550Z,1.05
2022-09-12T22:46:10.007Z,1.23
2022-09-12T22:48:40.007Z,1.02
2022-09-12T22:51:07.200Z,1.20
2022-09-12T22:53:37.571Z,1.50
2022-09-12T22:56:05.400Z,1.13
2022-09-12T22:58:33.074Z,1.25
2022-09-12T23:01:00.229Z,1.20
2022-09-12T23:03:27.334Z,1.10
2022-09-12T23:05:54.453Z,1.13
2022-09-12T23:08:21.545Z,1.08
2022-09-12T23:10:51.708Z,1.13
2022-09-12T23:13:20.812Z,1.17
2022-09-12T23:15:47.926Z,0.90
2022-09-12T23:18:15.069Z,0.90
2022-09-12T23:20:42.084Z,0.90
2022-09-12T23:23:09.757Z,1.40
2022-09-12T23:25:36.899Z,1.30
2022-09-12T23:28:04.239Z,0.85
2022-09-12T23:30:39.034Z,0.93
2022-09-12T23:33:06.116Z,1.10
2022-09-12T23:35:35.452Z,1.08
2022-09-12T23:38:04.616Z,0.90
2022-09-12T23:40:32.317Z,1.00
2022-09-12T23:42:59.380Z,1.00
2022-09-12T23:45:26.551Z,0.83
2022-09-12T23:47:59.435Z,0.93
2022-09-12T23:50:26.530Z,1.30
2022-09-12T23:52:53.583Z,1.17
2022-09-12T23:55:20.783Z,1.00
2022-09-12T23:57:47.818Z,1.30
